createdAt,value
2018-05-04T00:01:19.078Z,15.09
2018-05-04T00:03:46.611Z,15.07
2018-05-04T00:06:14.207Z,15.05
2018-05-04T00:08:41.735Z,15.02
2018-05-04T00:11:09.330Z,15.00
2018-05-04T00:13:37.543Z,14.98
2018-05-04T00:16:05.136Z,14.95
2018-05-04T00:18:32.886Z,14.92
2018-05-04T00:21:00.549Z,14.86
2018-05-04T00:23:28.067Z,14.77
2018-05-04T00:25:55.614Z,14.63
2018-05-04T00:28:23.231Z,14.44
2018-05-04T00:30:51.072Z,14.30
2018-05-04T00:33:18.610Z,14.21
2018-05-04T00:35:46.172Z,14.13
2018-05-04T00:38:13.856Z,14.07
2018-05-04T00:40:41.685Z,13.99
2018-05-04T00:43:09.933Z,13.91
2018-05-04T00:45:37.479Z,13.85
2018-05-04T00:48:05.235Z,13.79
2018-05-04T00:50:33.240Z,13.75
2018-05-04T00:53:01.056Z,13.72
2018-05-04T00:55:28.787Z,13.71
2018-05-04T00:57:56.305Z,13.69
2018-05-04T01:00:24.154Z,13.61
2018-05-04T01:02:51.770Z,13.56
2018-05-04T01:05:19.425Z,13.54
2018-05-04T01:07:46.961Z,13.51
2018-05-04T01:10:14.702Z,13.50
2018-05-04T01:12:42.479Z,13.46
2018-05-04T01:15:10.002Z,13.41
2018-05-04T01:17:37.546Z,13.35
2018-05-04T01:20:05.535Z,13.30
2018-05-04T01:22:33.222Z,13.24
2018-05-04T01:25:00.872Z,13.19
2018-05-04T01:27:28.526Z,13.19
2018-05-04T01:29:56.150Z,13.19
2018-05-04T01:32:23.982Z,13.22
2018-05-04T01:34:51.663Z,13.28
2018-05-04T01:37:19.484Z,13.26
2018-05-04T01:39:47.013Z,13.27
2018-05-04T01:42:14.926Z,13.30
2018-05-04T01:44:42.468Z,13.31
2018-05-04T01:47:10.007Z,13.31
2018-05-04T01:49:37.646Z,13.32
2018-05-04T01:52:05.301Z,13.31
2018-05-04T01:54:33.108Z,13.30
2018-05-04T01:57:00.751Z,13.24
2018-05-04T01:59:28.386Z,13.25
2018-05-04T02:01:56.368Z,13.23
2018-05-04T02:04:24.200Z,13.22
2018-05-04T02:06:52.833Z,13.18
2018-05-04T02:09:20.402Z,13.12
2018-05-04T02:11:47.961Z,13.13
2018-05-04T02:14:15.583Z,13.13
2018-05-04T02:16:43.342Z,13.06
2018-05-04T02:19:10.953Z,13.05
2018-05-04T02:21:38.573Z,12.97
2018-05-04T02:24:06.558Z,12.93
2018-05-04T02:26:34.173Z,12.87
2018-05-04T02:29:01.572Z,12.78
2018-05-04T02:31:29.273Z,12.62
2018-05-04T02:33:56.842Z,12.49
2018-05-04T02:36:24.523Z,12.41
2018-05-04T02:38:52.148Z,12.36
2018-05-04T02:41:20.369Z,12.29
2018-05-04T02:43:47.921Z,12.23
2018-05-04T02:46:15.522Z,12.21
2018-05-04T02:48:43.151Z,12.26
2018-05-04T02:51:10.777Z,12.26
2018-05-04T02:53:38.342Z,12.24
2018-05-04T02:56:06.043Z,12.20
2018-05-04T02:58:33.826Z,12.16
2018-05-04T03:01:01.394Z,12.08
2018-05-04T03:03:28.937Z,12.02
2018-05-04T03:05:56.473Z,11.95
2018-05-04T03:08:24.033Z,11.86
2018-05-04T03:10:52.773Z,11.72
2018-05-04T03:13:19.839Z,11.59
2018-05-04T03:15:47.018Z,11.50
2018-05-04T03:18:15.013Z,11.41
2018-05-04T03:20:42.118Z,11.39
2018-05-04T03:23:09.991Z,11.37
2018-05-04T03:25:37.219Z,11.39
2018-05-04T03:28:05.043Z,11.45
2018-05-04T03:30:33.054Z,11.33
2018-05-04T03:33:00.138Z,11.28
2018-05-04T03:35:27.658Z,11.27
2018-05-04T03:37:54.763Z,11.36
2018-05-04T03:40:22.302Z,11.46
2018-05-04T03:42:49.772Z,11.55
2018-05-04T03:45:16.893Z,11.60
2018-05-04T03:47:44.141Z,11.67
2018-05-04T03:50:11.307Z,11.71
2018-05-04T03:52:39.006Z,11.57
2018-05-04T03:55:06.758Z,11.59
2018-05-04T03:57:46.278Z,11.56
2018-05-04T04:00:25.620Z,11.52
2018-05-04T04:03:05.114Z,11.60
2018-05-04T04:05:32.993Z,11.71
2018-05-04T04:08:00.638Z,11.74
2018-05-04T04:10:28.328Z,11.86
2018-05-04T04:12:55.859Z,11.98
2018-05-04T04:15:23.528Z,12.12
2018-05-04T04:17:51.965Z,12.23
2018-05-04T04:20:19.562Z,12.34
2018-05-04T04:22:47.174Z,12.45
2018-05-04T04:25:14.779Z,12.57
2018-05-04T04:27:42.333Z,12.65
2018-05-04T04:30:09.978Z,12.73
2018-05-04T04:32:37.518Z,12.79
2018-05-04T04:35:05.126Z,12.84
2018-05-04T04:37:33.009Z,12.89
2018-05-04T04:40:00.878Z,12.93
2018-05-04T04:42:28.449Z,12.98
2018-05-04T04:44:56.439Z,12.97
2018-05-04T04:47:24.067Z,12.96
2018-05-04T04:49:51.638Z,12.93
2018-05-04T04:52:19.334Z,12.88
2018-05-04T04:54:46.868Z,12.84
2018-05-04T04:57:14.513Z,12.83
2018-05-04T04:59:42.243Z,12.86
2018-05-04T05:02:09.851Z,12.93
2018-05-04T05:04:37.565Z,12.94
2018-05-04T05:07:05.441Z,12.99
2018-05-04T05:09:33.159Z,13.04
2018-05-04T05:12:00.820Z,13.16
2018-05-04T05:14:28.403Z,13.34
2018-05-04T05:16:55.944Z,13.69
2018-05-04T05:19:23.819Z,13.89
2018-05-04T05:21:52.114Z,14.16
2018-05-04T05:24:19.581Z,14.24
2018-05-04T05:26:47.120Z,14.16
2018-05-04T05:29:14.820Z,14.06
2018-05-04T05:31:42.390Z,13.99
2018-05-04T05:34:10.056Z,13.99
2018-05-04T05:36:37.615Z,14.01
2018-05-04T05:39:06.092Z,14.13
2018-05-04T05:41:33.869Z,14.34
2018-05-04T05:44:01.450Z,14.88
2018-05-04T05:46:29.138Z,16.00
2018-05-04T05:49:01.289Z,16.86
2018-05-04T05:51:30.455Z,17.78
2018-05-04T05:53:58.043Z,18.13
2018-05-04T05:56:25.748Z,18.25
2018-05-04T05:58:53.275Z,18.33
2018-05-04T06:01:20.884Z,17.76
2018-05-04T06:03:48.669Z,17.40
2018-05-04T06:06:16.229Z,16.95
2018-05-04T06:08:43.924Z,16.64
2018-05-04T06:11:11.556Z,16.49
2018-05-04T06:13:39.187Z,16.39
2018-05-04T06:16:06.851Z,16.32
2018-05-04T06:18:34.404Z,16.38
2018-05-04T06:21:02.068Z,16.56
2018-05-04T06:23:29.604Z,16.68
2018-05-04T06:25:57.268Z,17.52
2018-05-04T06:28:25.485Z,19.10
2018-05-04T06:30:53.215Z,20.47
2018-05-04T06:33:20.741Z,21.33
2018-05-04T06:35:48.469Z,21.97
2018-05-04T06:38:16.056Z,22.45
2018-05-04T06:40:43.970Z,22.90
2018-05-04T06:43:11.855Z,23.16
2018-05-04T06:45:39.511Z,23.12
2018-05-04T06:48:07.038Z,23.47
2018-05-04T06:50:34.672Z,23.76
2018-05-04T06:53:02.334Z,24.44
2018-05-04T06:55:29.850Z,23.81
2018-05-04T06:57:57.489Z,24.11
2018-05-04T07:00:25.320Z,25.51
2018-05-04T07:02:52.938Z,24.88
2018-05-04T07:05:20.546Z,24.78
2018-05-04T07:07:48.133Z,24.89
2018-05-04T07:10:15.665Z,25.18
2018-05-04T07:12:43.229Z,25.19
2018-05-04T07:15:10.986Z,25.43
2018-05-04T07:17:38.686Z,25.49
2018-05-04T07:20:06.389Z,25.12
2018-05-04T07:22:33.975Z,25.11
2018-05-04T07:25:01.073Z,25.71
2018-05-04T07:27:28.248Z,26.47
2018-05-04T07:29:55.316Z,26.45
2018-05-04T07:32:22.868Z,27.56
2018-05-04T07:34:50.416Z,26.56
2018-05-04T07:37:17.726Z,24.71
2018-05-04T07:39:44.806Z,23.86
2018-05-04T07:42:12.455Z,23.17
2018-05-04T07:44:40.014Z,22.89
2018-05-04T07:47:07.784Z,22.30
2018-05-04T07:49:35.420Z,22.38
2018-05-04T07:52:03.346Z,23.13
2018-05-04T07:54:31.547Z,24.10
2018-05-04T07:56:58.854Z,24.96
2018-05-04T07:59:26.378Z,25.31
2018-05-04T08:01:53.575Z,24.75
2018-05-04T08:04:21.119Z,23.85
2018-05-04T08:06:48.656Z,22.55
2018-05-04T08:09:15.740Z,21.87
2018-05-04T08:11:43.315Z,21.55
2018-05-04T08:14:10.431Z,21.19
2018-05-04T08:16:38.065Z,21.24
2018-05-04T08:19:05.255Z,21.83
2018-05-04T08:21:32.390Z,22.79
2018-05-04T08:23:59.462Z,23.87
2018-05-04T08:26:26.525Z,24.02
2018-05-04T08:28:54.043Z,24.60
2018-05-04T08:31:21.115Z,25.48
2018-05-04T08:33:48.193Z,27.31
2018-05-04T08:36:15.776Z,28.44
2018-05-04T08:38:43.551Z,29.45
2018-05-04T08:41:11.155Z,28.21
2018-05-04T08:43:38.704Z,28.58
2018-05-04T08:46:06.369Z,29.80
2018-05-04T08:48:33.975Z,29.33
2018-05-04T08:51:01.740Z,27.79
2018-05-04T08:53:29.400Z,27.84
2018-05-04T08:55:57.069Z,27.52
2018-05-04T08:58:25.331Z,27.27
2018-05-04T09:00:52.876Z,26.58
2018-05-04T09:03:20.726Z,26.10
2018-05-04T09:05:48.504Z,25.93
2018-05-04T09:08:16.114Z,26.93
2018-05-04T09:10:43.859Z,28.94
2018-05-04T09:13:11.370Z,31.08
2018-05-04T09:15:38.980Z,32.67
2018-05-04T09:18:06.626Z,32.13
2018-05-04T09:20:34.216Z,32.32
2018-05-04T09:23:01.767Z,33.18
2018-05-04T09:25:29.472Z,33.39
2018-05-04T09:27:57.004Z,33.68
2018-05-04T09:30:24.615Z,34.03
2018-05-04T09:32:52.199Z,33.49
2018-05-04T09:35:19.770Z,32.21
2018-05-04T09:37:47.432Z,31.90
2018-05-04T09:40:15.087Z,31.93
2018-05-04T09:42:42.811Z,33.63
2018-05-04T09:45:10.359Z,34.74
2018-05-04T09:47:37.884Z,34.16
2018-05-04T09:50:05.456Z,35.05
2018-05-04T09:52:33.011Z,36.01
2018-05-04T09:55:00.691Z,36.38
2018-05-04T09:57:28.218Z,35.87
2018-05-04T09:59:55.867Z,35.86
2018-05-04T10:02:23.411Z,34.96
2018-05-04T10:04:50.945Z,35.41
2018-05-04T10:07:18.575Z,36.64
2018-05-04T10:09:46.098Z,36.91
2018-05-04T10:12:13.720Z,36.64
2018-05-04T10:14:41.250Z,37.32
2018-05-04T10:17:08.771Z,36.39
2018-05-04T10:19:36.291Z,36.74
2018-05-04T10:22:03.916Z,36.94
2018-05-04T10:24:31.432Z,37.72
2018-05-04T10:26:58.965Z,37.82
2018-05-04T10:29:26.482Z,39.29
2018-05-04T10:31:54.039Z,37.82
2018-05-04T10:34:21.606Z,37.89
2018-05-04T10:36:49.185Z,38.82
2018-05-04T10:39:16.881Z,37.85
2018-05-04T10:41:44.540Z,37.90
2018-05-04T10:44:12.160Z,34.99
2018-05-04T10:46:39.687Z,33.24
2018-05-04T10:49:07.427Z,30.73
2018-05-04T10:51:34.955Z,32.32
2018-05-04T10:54:02.480Z,31.37
2018-05-04T10:56:30.286Z,29.70
2018-05-04T10:58:57.996Z,31.28
2018-05-04T11:01:25.512Z,33.69
2018-05-04T11:03:54.312Z,35.41
2018-05-04T11:06:21.907Z,32.72
2018-05-04T11:08:49.560Z,34.02
2018-05-04T11:11:17.100Z,35.00
2018-05-04T11:13:44.812Z,35.60
2018-05-04T11:16:12.351Z,33.79
2018-05-04T11:18:39.999Z,33.42
2018-05-04T11:21:07.666Z,33.21
2018-05-04T11:23:35.295Z,32.43
2018-05-04T11:26:02.846Z,30.84
2018-05-04T11:28:30.687Z,30.39
2018-05-04T11:30:58.548Z,29.87
2018-05-04T11:33:26.300Z,29.11
2018-05-04T11:35:53.876Z,28.85
2018-05-04T11:38:21.423Z,29.51
2018-05-04T11:40:49.106Z,29.93
2018-05-04T11:43:16.656Z,29.29
2018-05-04T11:45:44.331Z,28.86
2018-05-04T11:48:12.107Z,26.87
2018-05-04T11:50:39.776Z,26.95
2018-05-04T11:53:07.356Z,26.88
2018-05-04T11:55:34.960Z,26.64
2018-05-04T11:58:02.633Z,27.21
2018-05-04T12:00:30.276Z,28.16
2018-05-04T12:02:57.941Z,29.94
2018-05-04T12:05:25.476Z,30.50
2018-05-04T12:07:53.011Z,30.26
2018-05-04T12:10:20.712Z,30.37
2018-05-04T12:12:48.327Z,31.94
2018-05-04T12:15:15.848Z,32.77
2018-05-04T12:17:44.231Z,31.65
2018-05-04T12:20:11.938Z,31.12
2018-05-04T12:22:39.613Z,31.23
2018-05-04T12:25:07.291Z,30.74
2018-05-04T12:27:35.125Z,29.20
2018-05-04T12:30:02.682Z,28.42
2018-05-04T12:32:30.545Z,28.27
2018-05-04T12:34:58.080Z,28.42
2018-05-04T12:37:25.711Z,28.50
2018-05-04T12:39:54.321Z,27.89
2018-05-04T12:42:21.966Z,27.48
2018-05-04T12:44:49.560Z,26.98
2018-05-04T12:47:17.114Z,26.53
2018-05-04T12:49:44.802Z,26.59
2018-05-04T12:52:12.631Z,26.71
2018-05-04T12:54:41.194Z,26.45
2018-05-04T12:57:07.946Z,26.15
2018-05-04T12:59:35.586Z,26.37
2018-05-04T13:02:03.320Z,26.49
2018-05-04T13:04:31.689Z,26.25
2018-05-04T13:06:59.848Z,25.97
2018-05-04T13:09:27.597Z,25.85
2018-05-04T13:11:55.391Z,26.34
2018-05-04T13:14:22.936Z,27.34
2018-05-04T13:16:50.597Z,27.64
2018-05-04T13:19:18.318Z,27.25
2018-05-04T13:21:46.517Z,28.19
2018-05-04T13:24:14.379Z,28.44
2018-05-04T13:26:41.960Z,28.30
2018-05-04T13:29:09.735Z,27.64
2018-05-04T13:31:37.300Z,26.74
2018-05-04T13:34:05.711Z,26.52
2018-05-04T13:36:33.300Z,25.99
2018-05-04T13:39:00.856Z,26.24
2018-05-04T13:41:28.442Z,25.97
2018-05-04T13:43:55.985Z,26.64
2018-05-04T13:46:23.558Z,26.84
2018-05-04T13:48:51.097Z,26.74
2018-05-04T13:51:18.763Z,26.14
2018-05-04T13:53:46.242Z,25.50
2018-05-04T13:56:13.805Z,25.55
2018-05-04T13:58:41.474Z,25.10
2018-05-04T14:01:09.127Z,25.18
2018-05-04T14:03:36.785Z,25.28
2018-05-04T14:06:04.553Z,25.44
2018-05-04T14:08:32.365Z,25.71
2018-05-04T14:10:59.889Z,25.52
2018-05-04T14:13:27.505Z,25.51
2018-05-04T14:15:55.492Z,25.69
2018-05-04T14:18:23.016Z,26.26
2018-05-04T14:20:50.633Z,26.60
2018-05-04T14:23:18.300Z,26.19
2018-05-04T14:25:45.832Z,26.25
2018-05-04T14:28:14.338Z,25.96
2018-05-04T14:30:41.871Z,25.46
2018-05-04T14:33:09.404Z,25.38
2018-05-04T14:35:36.961Z,25.66
2018-05-04T14:38:04.498Z,25.76
2018-05-04T14:40:32.066Z,25.93
2018-05-04T14:42:59.893Z,25.89
2018-05-04T14:45:27.529Z,25.66
2018-05-04T14:47:55.176Z,26.00
2018-05-04T14:50:22.896Z,26.11
2018-05-04T14:52:50.437Z,26.05
2018-05-04T14:55:18.122Z,25.84
2018-05-04T14:57:46.599Z,25.77
2018-05-04T15:00:15.418Z,25.84
2018-05-04T15:02:43.133Z,25.61
2018-05-04T15:05:10.676Z,25.66
2018-05-04T15:07:38.506Z,25.77
2018-05-04T15:10:06.058Z,25.72
2018-05-04T15:12:33.798Z,25.84
2018-05-04T15:15:01.547Z,25.85
2018-05-04T15:17:29.077Z,25.68
2018-05-04T15:19:56.718Z,25.53
2018-05-04T15:22:24.479Z,25.37
2018-05-04T15:24:52.114Z,25.21
2018-05-04T15:27:19.651Z,24.98
2018-05-04T15:29:47.208Z,24.84
2018-05-04T15:32:14.906Z,24.72
2018-05-04T15:34:42.512Z,24.48
2018-05-04T15:37:12.551Z,24.48
2018-05-04T15:39:40.214Z,24.13
2018-05-04T15:42:07.968Z,24.08
2018-05-04T15:44:35.543Z,24.05
2018-05-04T15:47:03.259Z,23.95
2018-05-04T15:49:30.847Z,23.84
2018-05-04T15:52:07.119Z,23.94
2018-05-04T15:54:34.964Z,23.74
2018-05-04T15:57:02.509Z,23.85
2018-05-04T15:59:30.163Z,23.85
2018-05-04T16:01:57.834Z,23.86
2018-05-04T16:04:25.383Z,23.92
2018-05-04T16:06:53.641Z,23.89
2018-05-04T16:09:21.268Z,23.91
2018-05-04T16:11:48.918Z,23.85
2018-05-04T16:14:16.463Z,23.64
2018-05-04T16:16:44.031Z,23.49
2018-05-04T16:19:11.661Z,23.35
2018-05-04T16:21:39.373Z,23.37
2018-05-04T16:24:06.917Z,23.35
2018-05-04T16:26:34.648Z,23.28
2018-05-04T16:29:02.208Z,23.26
2018-05-04T16:31:30.020Z,23.27
2018-05-04T16:33:57.563Z,23.29
2018-05-04T16:36:25.291Z,23.20
2018-05-04T16:38:52.836Z,23.14
2018-05-04T16:41:20.536Z,23.12
2018-05-04T16:43:48.452Z,23.08
2018-05-04T16:46:21.562Z,22.90
2018-05-04T16:48:54.797Z,22.86
2018-05-04T16:51:22.329Z,22.83
2018-05-04T16:53:49.971Z,22.83
2018-05-04T16:56:17.658Z,22.75
2018-05-04T16:58:45.223Z,22.73
2018-05-04T17:01:12.927Z,22.63
2018-05-04T17:03:40.467Z,22.62
2018-05-04T17:06:08.081Z,22.62
2018-05-04T17:08:35.666Z,22.50
2018-05-04T17:11:03.592Z,22.49
2018-05-04T17:13:31.151Z,22.48
2018-05-04T17:15:58.755Z,22.39
2018-05-04T17:18:26.404Z,22.32
2018-05-04T17:20:54.063Z,22.25
2018-05-04T17:23:21.689Z,22.23
2018-05-04T17:25:49.348Z,22.17
2018-05-04T17:28:16.888Z,22.11
2018-05-04T17:30:44.557Z,22.07
2018-05-04T17:33:12.119Z,22.02
2018-05-04T17:35:39.778Z,21.96
2018-05-04T17:38:07.637Z,21.91
2018-05-04T17:40:35.418Z,21.87
2018-05-04T17:43:03.412Z,21.84
2018-05-04T17:45:31.182Z,21.80
2018-05-04T17:47:58.719Z,21.74
2018-05-04T17:50:26.262Z,21.69
2018-05-04T17:52:53.844Z,21.68
2018-05-04T17:55:21.377Z,21.65
2018-05-04T17:57:48.926Z,21.60
2018-05-04T18:00:16.488Z,21.54
2018-05-04T18:02:44.183Z,21.48
2018-05-04T18:05:11.984Z,21.44
2018-05-04T18:07:39.613Z,21.30
2018-05-04T18:10:07.155Z,21.22
2018-05-04T18:12:34.729Z,21.19
2018-05-04T18:15:02.313Z,21.09
2018-05-04T18:17:29.847Z,21.04
2018-05-04T18:19:57.559Z,20.99
2018-05-04T18:22:25.159Z,20.92
2018-05-04T18:24:52.863Z,20.86
2018-05-04T18:27:20.592Z,20.79
2018-05-04T18:29:48.234Z,20.67
2018-05-04T18:32:15.815Z,20.61
2018-05-04T18:34:43.349Z,20.52
2018-05-04T18:37:11.048Z,20.37
2018-05-04T18:39:38.591Z,20.30
2018-05-04T18:42:06.164Z,20.24
2018-05-04T18:44:33.839Z,20.19
2018-05-04T18:47:01.428Z,20.04
2018-05-04T18:49:28.995Z,19.93
2018-05-04T18:51:56.729Z,19.80
2018-05-04T18:54:24.431Z,19.65
2018-05-04T18:56:52.214Z,19.52
2018-05-04T18:59:20.755Z,19.41
2018-05-04T19:01:48.478Z,19.31
2018-05-04T19:04:16.019Z,19.20
2018-05-04T19:06:43.704Z,19.09
2018-05-04T19:09:11.645Z,19.03
2018-05-04T19:11:39.501Z,18.98
2018-05-04T19:14:08.364Z,19.01
2018-05-04T19:16:35.897Z,18.98
2018-05-04T19:19:03.594Z,18.97
2018-05-04T19:21:31.335Z,18.94
2018-05-04T19:23:59.022Z,18.86
2018-05-04T19:26:26.598Z,18.75
2018-05-04T19:28:54.153Z,18.68
2018-05-04T19:31:22.624Z,18.65
2018-05-04T19:33:50.240Z,18.59
2018-05-04T19:36:17.901Z,18.54
2018-05-04T19:38:45.525Z,18.51
2018-05-04T19:41:13.184Z,18.39
2018-05-04T19:43:41.111Z,18.28
2018-05-04T19:46:08.935Z,18.07
2018-05-04T19:48:37.335Z,18.09
2018-05-04T19:51:04.856Z,18.10
2018-05-04T19:53:32.719Z,18.10
2018-05-04T19:56:00.437Z,18.11
2018-05-04T19:58:27.955Z,18.05
2018-05-04T20:00:55.489Z,18.01
2018-05-04T20:03:23.050Z,17.98
2018-05-04T20:05:50.615Z,17.92
2018-05-04T20:08:18.464Z,17.90
2018-05-04T20:10:46.308Z,17.84
2018-05-04T20:13:14.060Z,17.79
2018-05-04T20:15:41.898Z,17.76
2018-05-04T20:18:09.730Z,17.69
2018-05-04T20:20:37.304Z,17.65
2018-05-04T20:23:05.118Z,17.65
2018-05-04T20:25:32.935Z,17.59
2018-05-04T20:28:00.600Z,17.48
2018-05-04T20:30:28.151Z,17.46
2018-05-04T20:32:55.776Z,17.48
2018-05-04T20:35:23.560Z,17.46
2018-05-04T20:37:51.184Z,17.45
2018-05-04T20:40:19.285Z,17.49
2018-05-04T20:42:46.859Z,17.45
2018-05-04T20:45:14.584Z,17.37
2018-05-04T20:47:42.183Z,17.36
2018-05-04T20:50:10.002Z,17.29
2018-05-04T20:52:37.685Z,17.25
2018-05-04T20:55:05.349Z,17.25
2018-05-04T20:57:32.924Z,17.23
2018-05-04T21:00:00.731Z,17.21
2018-05-04T21:02:28.253Z,17.22
2018-05-04T21:04:56.158Z,17.24
2018-05-04T21:07:23.969Z,17.25
2018-05-04T21:09:52.995Z,17.32
2018-05-04T21:12:20.679Z,17.33
2018-05-04T21:14:48.258Z,17.30
2018-05-04T21:17:16.079Z,17.31
2018-05-04T21:19:43.644Z,17.33
2018-05-04T21:22:11.271Z,17.32
2018-05-04T21:24:39.025Z,17.33
2018-05-04T21:27:06.733Z,17.33
2018-05-04T21:29:34.670Z,17.33
2018-05-04T21:32:02.404Z,17.33
2018-05-04T21:34:30.095Z,17.26
2018-05-04T21:36:57.898Z,17.29
2018-05-04T21:39:25.710Z,17.29
2018-05-04T21:41:53.509Z,17.27
2018-05-04T21:44:21.096Z,17.25
2018-05-04T21:46:48.759Z,17.19
2018-05-04T21:49:16.653Z,17.16
2018-05-04T21:51:44.330Z,17.14
2018-05-04T21:54:12.041Z,17.12
2018-05-04T21:56:39.959Z,17.05
2018-05-04T21:59:08.259Z,17.04
2018-05-04T22:01:35.827Z,17.00
2018-05-04T22:04:03.621Z,16.95
2018-05-04T22:06:31.249Z,16.97
2018-05-04T22:08:58.836Z,16.91
2018-05-04T22:11:26.446Z,16.86
2018-05-04T22:13:54.066Z,16.85
2018-05-04T22:16:21.596Z,16.80
2018-05-04T22:18:49.975Z,16.77
2018-05-04T22:21:17.604Z,16.72
2018-05-04T22:23:45.144Z,16.70
2018-05-04T22:26:12.700Z,16.71
2018-05-04T22:28:40.325Z,16.70
2018-05-04T22:31:07.899Z,16.65
2018-05-04T22:33:35.600Z,16.60
2018-05-04T22:36:03.407Z,16.58
2018-05-04T22:38:31.239Z,16.56
2018-05-04T22:40:59.015Z,16.54
2018-05-04T22:43:26.653Z,16.51
2018-05-04T22:45:54.600Z,16.47
2018-05-04T22:48:22.365Z,16.45
2018-05-04T22:50:50.035Z,16.45
2018-05-04T22:53:17.781Z,16.42
2018-05-04T22:55:45.405Z,16.36
2018-05-04T22:58:13.200Z,16.30
2018-05-04T23:00:40.781Z,16.22
2018-05-04T23:03:08.679Z,16.16
2018-05-04T23:05:36.428Z,16.05
2018-05-04T23:08:04.052Z,15.99
2018-05-04T23:10:32.235Z,15.85
2018-05-04T23:12:59.961Z,15.79
2018-05-04T23:15:28.398Z,15.65
2018-05-04T23:17:56.221Z,15.58
2018-05-04T23:20:24.104Z,15.52
2018-05-04T23:22:51.764Z,15.39
2018-05-04T23:25:20.355Z,15.20
2018-05-04T23:27:47.956Z,15.09
2018-05-04T23:30:15.834Z,15.05
2018-05-04T23:32:43.545Z,15.09
2018-05-04T23:35:12.496Z,15.03
2018-05-04T23:37:40.041Z,14.95
2018-05-04T23:40:07.836Z,14.95
2018-05-04T23:42:35.513Z,14.95
2018-05-04T23:45:03.070Z,15.03
2018-05-04T23:47:31.340Z,15.05
2018-05-04T23:49:59.030Z,15.09
2018-05-04T23:52:26.568Z,15.04
2018-05-04T23:54:54.465Z,14.94
2018-05-04T23:57:22.296Z,14.90
2018-05-04T23:59:50.010Z,14.84
